Time;durP1;ratioP1;P1;durP2;ratioP2;P2;SDS_P1;SDS_P2;PMS_P1;PMS_P2;Temp;Humidity;BMP_temperature;BMP_pressure;BME280_temperature;BME280_humidity;BME280_pressure;Samples;Min_cycle;Max_cycle;Signal;HPM_P1;HPM_P2
2023/04/30 00:02:10;;;;;;;;;;;;;;;;;;5052277;28;20290;-61
2023/04/30 00:04:36;;;;;;;;;;;;;;;;;;5053034;28;19921;-61
2023/04/30 00:07:02;;;;;;;;;;;;;;;;;;5049543;28;19967;-61
2023/04/30 00:09:28;;;;;;;;;;;;;;;;;;5046529;28;20378;-61
2023/04/30 00:11:54;;;;;;;;;;;;;;;;;;5052168;28;19978;-61
2023/04/30 00:14:20;;;;;;;;;;;;;;;;;;5038689;28;19937;-61
2023/04/30 00:16:45;;;;;;;;;;;;;;;;;;5043884;28;19921;-61
2023/04/30 00:19:11;;;;;;;;;;;;;;;;;;5053087;28;19925;-61
2023/04/30 00:21:37;;;;;;;;;;;;;;;;;;5052048;28;20371;-61
2023/04/30 00:24:03;;;;;;;;;;;;;;;;;;5051780;28;19936;-61
2023/04/30 00:26:29;;;;;;;;;;;;;;;;;;5051375;28;20379;-61
2023/04/30 00:28:55;;;;;;;;;;;;;;;;;;5051729;28;20011;-61
2023/04/30 00:31:21;;;;;;;;;;;;;;;;;;5042460;28;19921;-61
2023/04/30 00:33:47;;;;;;;;;;;;;;;;;;5050179;28;19925;-61
2023/04/30 00:36:13;;;;;;;;;;;;;;;;;;5051608;28;19935;-61
2023/04/30 00:38:39;;;;;;;;;;;;;;;;;;5052019;28;20383;-61
2023/04/30 00:41:04;;;;;;;;;;;;;;;;;;5043812;28;19921;-61
2023/04/30 00:43:30;;;;;;;;;;;;;;;;;;5051882;28;19920;-61
2023/04/30 00:45:57;;;;;;;;;;;;;;;;;;5051612;28;19921;-61
2023/04/30 00:48:23;;;;;;;;;;;;;;;;;;5038598;28;20012;-61
2023/04/30 00:50:49;;;;;;;;;;;;;;;;;;5048939;28;20446;-61
2023/04/30 00:53:15;;;;;;;;;;;;;;;;;;5052070;28;19931;-61
2023/04/30 00:55:41;;;;;;;;;;;;;;;;;;5043654;28;20015;-61
2023/04/30 00:58:07;;;;;;;;;;;;;;;;;;5040332;28;20394;-62
2023/04/30 01:00:32;;;;;;;;;;;;;;;;;;5031559;28;19925;-61
2023/04/30 01:02:58;;;;;;;;;;;;;;;;;;5054760;28;19982;-61
2023/04/30 01:05:24;;;;;;;;;;;;;;;;;;5037493;28;19921;-61
2023/04/30 01:07:50;;;;;;;;;;;;;;;;;;5045998;28;19921;-61
2023/04/30 01:10:16;;;;;;;;;;;;;;;;;;5051701;28;19978;-61
2023/04/30 01:12:42;;;;;;;;;;;;;;;;;;5050464;28;20386;-61
2023/04/30 01:15:08;;;;;;;;;;;;;;;;;;5047764;28;19929;-61
2023/04/30 01:17:34;;;;;;;;;;;;;;;;;;5046043;28;19925;-61
2023/04/30 01:20:00;;;;;;;;;;;;;;;;;;5049672;28;20389;-62
2023/04/30 01:22:26;;;;;;;;;;;;;;;;;;5040838;28;19930;-61
2023/04/30 01:24:52;;;;;;;;;;;;;;;;;;5051522;28;19921;-61
2023/04/30 01:27:17;;;;;;;;;;;;;;;;;;5095468;22;19935;-67
2023/04/30 01:29:43;;;;;;;;;;;;;;;;;;5073336;28;19947;-67
2023/04/30 01:32:09;;;;;;;;;;;;;;;;;;5071517;28;19960;-67
2023/04/30 01:34:35;;;;;;;;;;;;;;;;;;5071119;28;19927;-67
2023/04/30 01:37:01;;;;;;;;;;;;;;;;;;5070220;28;19924;-67
2023/04/30 01:39:27;;;;;;;;;;;;;;;;;;5077240;28;19925;-67
2023/04/30 01:41:53;;;;;;;;;;;;;;;;;;5071769;28;19920;-67
2023/04/30 01:44:19;;;;;;;;;;;;;;;;;;5079020;28;19927;-67
2023/04/30 01:46:45;;;;;;;;;;;;;;;;;;5077877;28;19944;-67
2023/04/30 01:49:11;;;;;;;;;;;;;;;;;;5071821;28;20393;-66
2023/04/30 01:51:37;;;;;;;;;;;;;;;;;;5070304;28;19929;-66
2023/04/30 01:54:02;;;;;;;;;;;;;;;;;;5070671;28;19944;-67
2023/04/30 01:56:28;;;;;;;;;;;;;;;;;;5078235;28;19928;-67
2023/04/30 01:58:54;;;;;;;;;;;;;;;;;;5082981;28;19971;-66
2023/04/30 02:01:20;;;;;;;;;;;;;;;;;;5079928;28;19920;-67
2023/04/30 02:03:46;;;;;;;;;;;;;;;;;;5069088;28;20361;-67
2023/04/30 02:06:12;;;;;;;;;;;;;;;;;;5075649;28;19920;-67
2023/04/30 02:08:38;;;;;;;;;;;;;;;;;;5070468;28;19924;-67
2023/04/30 02:11:04;;;;;;;;;;;;;;;;;;5070457;28;19920;-67
2023/04/30 02:13:30;;;;;;;;;;;;;;;;;;5084841;28;19924;-67
2023/04/30 02:15:56;;;;;;;;;;;;;;;;;;5086580;28;20015;-67
2023/04/30 02:18:22;;;;;;;;;;;;;;;;;;5082306;28;19966;-67
2023/04/30 02:20:47;;;;;;;;;;;;;;;;;;5082713;28;19947;-67
2023/04/30 02:23:13;;;;;;;;;;;;;;;;;;5094542;28;19967;-67
2023/04/30 02:25:39;;;;;;;;;;;;;;;;;;5078834;28;19920;-66
2023/04/30 02:28:05;;;;;;;;;;;;;;;;;;5074871;28;19924;-67
2023/04/30 02:30:31;;;;;;;;;;;;;;;;;;5074703;28;19928;-67
2023/04/30 02:32:57;;;;;;;;;;;;;;;;;;5088964;28;19977;-67
2023/04/30 02:35:23;;;;;;;;;;;;;;;;;;5086680;28;19985;-67
2023/04/30 02:37:48;;;;;;;;;;;;;;;;;;5074323;28;19927;-67
2023/04/30 02:40:14;;;;;;;;;;;;;;;;;;5085757;28;19920;-67
2023/04/30 02:42:40;;;;;;;;;;;;;;;;;;5077654;28;20006;-67
2023/04/30 02:45:06;;;;;;;;;;;;;;;;;;5075650;28;20003;-67
2023/04/30 02:47:32;;;;;;;;;;;;;;;;;;5078031;28;20041;-67
2023/04/30 02:49:58;;;;;;;;;;;;;;;;;;5073701;28;19930;-67
2023/04/30 02:52:25;;;;;;;;;;;;;;;;;;5083054;28;19928;-67
2023/04/30 02:54:50;;;;;;;;;;;;;;;;;;5093028;28;20504;-67
2023/04/30 02:57:16;;;;;;;;;;;;;;;;;;5092278;28;19920;-67
2023/04/30 02:59:44;;;;;;;;;;;;;;;;;;5079860;28;19920;-67
2023/04/30 03:02:11;;;;;;;;;;;;;;;;;;5074275;28;19927;-67
2023/04/30 03:04:37;;;;;;;;;;;;;;;;;;5072249;28;19927;-67
2023/04/30 03:07:03;;;;;;;;;;;;;;;;;;5079685;28;19928;-67
2023/04/30 03:09:29;;;;;;;;;;;;;;;;;;5088588;28;19920;-67
2023/04/30 03:11:54;;;;;;;;;;;;;;;;;;5093857;28;19943;-67
2023/04/30 03:14:20;;;;;;;;;;;;;;;;;;5094034;28;19974;-67
2023/04/30 03:16:46;;;;;;;;;;;;;;;;;;5079533;28;20339;-67
2023/04/30 03:19:12;;;;;;;;;;;;;;;;;;5074474;28;20461;-67
2023/04/30 03:21:38;;;;;;;;;;;;;;;;;;5073226;28;19981;-67
2023/04/30 03:24:04;;;;;;;;;;;;;;;;;;5079890;28;20301;-67
2023/04/30 03:26:30;;;;;;;;;;;;;;;;;;5093469;28;19985;-67
2023/04/30 03:28:56;;;;;;;;;;;;;;;;;;5094160;28;19920;-67
2023/04/30 03:31:22;;;;;;;;;;;;;;;;;;5093160;28;19927;-67
2023/04/30 03:33:47;;;;;;;;;;;;;;;;;;5093599;28;19928;-67
2023/04/30 03:36:13;;;;;;;;;;;;;;;;;;5083374;28;19931;-67
2023/04/30 03:38:40;;;;;;;;;;;;;;;;;;5070396;28;20011;-67
2023/04/30 03:41:06;;;;;;;;;;;;;;;;;;5076251;28;20091;-67
2023/04/30 03:43:32;;;;;;;;;;;;;;;;;;5073400;28;20305;-67
2023/04/30 03:45:58;;;;;;;;;;;;;;;;;;5073180;28;19924;-67
2023/04/30 03:48:24;;;;;;;;;;;;;;;;;;5072818;28;20374;-67
2023/04/30 03:50:50;;;;;;;;;;;;;;;;;;5079057;28;20296;-67
2023/04/30 03:53:16;;;;;;;;;;;;;;;;;;5079826;28;19924;-67
2023/04/30 03:55:42;;;;;;;;;;;;;;;;;;5073167;28;20293;-67
2023/04/30 03:58:07;;;;;;;;;;;;;;;;;;5072615;28;19963;-67
2023/04/30 04:00:33;;;;;;;;;;;;;;;;;;5071665;28;20356;-67
2023/04/30 04:02:59;;;;;;;;;;;;;;;;;;5079433;28;19928;-66
2023/04/30 04:05:25;;;;;;;;;;;;;;;;;;5070640;28;20285;-67
2023/04/30 04:07:51;;;;;;;;;;;;;;;;;;5088599;28;19927;-67
2023/04/30 04:10:17;;;;;;;;;;;;;;;;;;5073450;28;19920;-67
2023/04/30 04:12:43;;;;;;;;;;;;;;;;;;5087415;28;20486;-66
2023/04/30 04:15:09;;;;;;;;;;;;;;;;;;5074309;28;20015;-66
2023/04/30 04:17:35;;;;;;;;;;;;;;;;;;5071163;28;20306;-67
2023/04/30 04:20:01;;;;;;;;;;;;;;;;;;5072291;28;19924;-67
2023/04/30 04:22:26;;;;;;;;;;;;;;;;;;5071556;28;20290;-67
2023/04/30 04:24:54;;;;;;;;;;;;;;;;;;5071280;28;20015;-66
2023/04/30 04:27:20;;;;;;;;;;;;;;;;;;5071268;28;20353;-67
2023/04/30 04:29:46;;;;;;;;;;;;;;;;;;5071868;28;19921;-67
2023/04/30 04:32:13;;;;;;;;;;;;;;;;;;5072040;28;20019;-67
2023/04/30 04:34:39;;;;;;;;;;;;;;;;;;5071006;28;19926;-66
2023/04/30 04:37:05;;;;;;;;;;;;;;;;;;5071100;28;20007;-66
2023/04/30 04:39:31;;;;;;;;;;;;;;;;;;5072038;28;20351;-67
2023/04/30 04:41:57;;;;;;;;;;;;;;;;;;5070799;28;19920;-67
2023/04/30 04:44:23;;;;;;;;;;;;;;;;;;5071286;28;19977;-67
2023/04/30 04:46:52;;;;;;;;;;;;;;;;;;5081380;28;19920;-67
2023/04/30 04:49:18;;;;;;;;;;;;;;;;;;5076482;28;19924;-67
2023/04/30 04:51:44;;;;;;;;;;;;;;;;;;5073282;28;19929;-66
2023/04/30 04:54:10;;;;;;;;;;;;;;;;;;5070227;28;19943;-67
2023/04/30 04:56:36;;;;;;;;;;;;;;;;;;5074812;28;19928;-67
2023/04/30 04:59:02;;;;;;;;;;;;;;;;;;5071356;28;19924;-67
2023/04/30 05:01:28;;;;;;;;;;;;;;;;;;5077449;28;19924;-67
2023/04/30 05:03:54;;;;;;;;;;;;;;;;;;5072635;28;19990;-67
2023/04/30 05:06:20;;;;;;;;;;;;;;;;;;5088817;28;20382;-66
2023/04/30 05:08:46;;;;;;;;;;;;;;;;;;5080028;28;19935;-67
2023/04/30 05:11:11;;;;;;;;;;;;;;;;;;5074533;28;20377;-67
2023/04/30 05:13:37;;;;;;;;;;;;;;;;;;5079856;28;20277;-67
2023/04/30 05:16:03;;;;;;;;;;;;;;;;;;5085492;28;20294;-67
2023/04/30 05:18:29;;;;;;;;;;;;;;;;;;5087144;28;20018;-67
2023/04/30 05:20:55;;;;;;;;;;;;;;;;;;5078880;28;19928;-67
2023/04/30 05:23:21;;;;;;;;;;;;;;;;;;5079661;28;19966;-67
2023/04/30 05:25:47;;;;;;;;;;;;;;;;;;5081668;28;19921;-67
2023/04/30 05:28:13;;;;;;;;;;;;;;;;;;5080110;28;20290;-67
2023/04/30 05:30:39;;;;;;;;;;;;;;;;;;5075344;28;19973;-67
2023/04/30 05:33:05;;;;;;;;;;;;;;;;;;5071001;28;20298;-67
2023/04/30 05:35:34;;;;;;;;;;;;;;;;;;5072410;28;19963;-67
2023/04/30 05:38:00;;;;;;;;;;;;;;;;;;5070564;28;19982;-67
2023/04/30 05:40:26;;;;;;;;;;;;;;;;;;5071886;28;19960;-67
2023/04/30 05:42:52;;;;;;;;;;;;;;;;;;5090170;28;19972;-67
2023/04/30 05:45:18;;;;;;;;;;;;;;;;;;5081354;28;19924;-67
2023/04/30 05:47:44;;;;;;;;;;;;;;;;;;5074234;28;19928;-67
2023/04/30 05:50:10;;;;;;;;;;;;;;;;;;5071452;28;19920;-67
2023/04/30 05:52:36;;;;;;;;;;;;;;;;;;5082442;28;19932;-67
2023/04/30 05:55:01;;;;;;;;;;;;;;;;;;5074854;28;20005;-67
2023/04/30 05:57:27;;;;;;;;;;;;;;;;;;5089952;28;19928;-67
2023/04/30 05:59:53;;;;;;;;;;;;;;;;;;5079234;28;19920;-67
2023/04/30 06:02:19;;;;;;;;;;;;;;;;;;5079626;28;19920;-67
2023/04/30 06:04:45;;;;;;;;;;;;;;;;;;5076931;28;19971;-67
2023/04/30 06:07:12;;;;;;;;;;;;;;;;;;5085025;28;19942;-67
2023/04/30 06:09:37;;;;;;;;;;;;;;;;;;5084577;28;20358;-67
2023/04/30 06:12:03;;;;;;;;;;;;;;;;;;5083105;28;19983;-67
2023/04/30 06:14:29;;;;;;;;;;;;;;;;;;5073467;28;19931;-67
2023/04/30 06:16:55;;;;;;;;;;;;;;;;;;5081808;28;19972;-67
2023/04/30 06:19:21;;;;;;;;;;;;;;;;;;5078510;28;19924;-67
2023/04/30 06:21:47;;;;;;;;;;;;;;;;;;5083758;28;20397;-67
2023/04/30 06:24:13;;;;;;;;;;;;;;;;;;5095393;28;19920;-67
2023/04/30 06:26:39;;;;;;;;;;;;;;;;;;5091942;28;20026;-67
2023/04/30 06:29:05;;;;;;;;;;;;;;;;;;5110741;27;19920;-67
2023/04/30 06:31:30;;;;;;;;;;;;;;;;;;5080052;28;19920;-67
2023/04/30 06:33:56;;;;;;;;;;;;;;;;;;5071495;28;19925;-67
2023/04/30 06:36:22;;;;;;;;;;;;;;;;;;5079778;28;20007;-67
2023/04/30 06:38:48;;;;;;;;;;;;;;;;;;5070189;28;19928;-67
2023/04/30 06:41:15;;;;;;;;;;;;;;;;;;5072938;28;19956;-67
2023/04/30 06:43:41;;;;;;;;;;;;;;;;;;5072868;28;19921;-67
2023/04/30 06:46:07;;;;;;;;;;;;;;;;;;5071932;28;19936;-67
2023/04/30 06:48:33;;;;;;;;;;;;;;;;;;5069073;28;20440;-67
2023/04/30 06:50:58;;;;;;;;;;;;;;;;;;5072186;28;19940;-67
2023/04/30 06:53:24;;;;;;;;;;;;;;;;;;5072336;28;19969;-67
2023/04/30 06:55:51;;;;;;;;;;;;;;;;;;5069352;28;19920;-67
2023/04/30 06:58:17;;;;;;;;;;;;;;;;;;5073658;28;19920;-67
2023/04/30 07:00:43;;;;;;;;;;;;;;;;;;5072397;28;19960;-67
2023/04/30 07:03:09;;;;;;;;;;;;;;;;;;5071692;28;19951;-67
2023/04/30 07:05:35;;;;;;;;;;;;;;;;;;5070306;28;20167;-67
2023/04/30 07:08:02;;;;;;;;;;;;;;;;;;5068746;28;19972;-67
2023/04/30 07:10:28;;;;;;;;;;;;;;;;;;5065400;28;19970;-66
2023/04/30 07:12:54;;;;;;;;;;;;;;;;;;5072095;28;19925;-67
2023/04/30 07:15:20;;;;;;;;;;;;;;;;;;5071386;28;20007;-67
2023/04/30 07:17:46;;;;;;;;;;;;;;;;;;5065764;28;20417;-67
2023/04/30 07:20:13;;;;;;;;;;;;;;;;;;5065265;28;19999;-67
2023/04/30 07:22:39;;;;;;;;;;;;;;;;;;5070591;28;20333;-67
2023/04/30 07:25:05;;;;;;;;;;;;;;;;;;5084273;28;20305;-67
2023/04/30 07:27:31;;;;;;;;;;;;;;;;;;5072507;22;19929;-63
2023/04/30 07:29:57;;;;;;;;;;;;;;;;;;5055472;28;19925;-63
2023/04/30 07:32:25;;;;;;;;;;;;;;;;;;5046940;28;20283;-62
2023/04/30 07:34:52;;;;;;;;;;;;;;;;;;5050866;28;19979;-63
2023/04/30 07:37:18;;;;;;;;;;;;;;;;;;5053506;28;20382;-63
2023/04/30 07:39:43;;;;;;;;;;;;;;;;;;5050875;28;19974;-63
2023/04/30 07:42:09;;;;;;;;;;;;;;;;;;5053401;28;19921;-63
2023/04/30 07:44:35;;;;;;;;;;;;;;;;;;5065788;28;20378;-61
2023/04/30 07:47:01;;;;;;;;;;;;;;;;;;5055224;28;19935;-61
2023/04/30 07:49:27;;;;;;;;;;;;;;;;;;5056137;28;19925;-61
2023/04/30 07:51:53;;;;;;;;;;;;;;;;;;5047670;28;19940;-61
2023/04/30 07:54:19;;;;;;;;;;;;;;;;;;5051725;28;19955;-61
2023/04/30 07:56:47;;;;;;;;;;;;;;;;;;5051644;28;19974;-60
2023/04/30 07:59:13;;;;;;;;;;;;;;;;;;5050879;28;20375;-61
2023/04/30 08:01:39;;;;;;;;;;;;;;;;;;5053668;28;19931;-61
2023/04/30 08:04:06;;;;;;;;;;;;;;;;;;5047852;28;19927;-61
2023/04/30 08:06:32;;;;;;;;;;;;;;;;;;5051467;28;19925;-62
2023/04/30 08:08:58;;;;;;;;;;;;;;;;;;5052781;28;19974;-62
2023/04/30 08:11:23;;;;;;;;;;;;;;;;;;5047703;28;19921;-62
2023/04/30 08:13:50;;;;;;;;;;;;;;;;;;5050580;28;20402;-62
2023/04/30 08:16:15;;;;;;;;;;;;;;;;;;5057774;28;19943;-62
2023/04/30 08:18:43;;;;;;;;;;;;;;;;;;5056004;28;20457;-63
2023/04/30 08:21:09;;;;;;;;;;;;;;;;;;5043868;28;19921;-62
2023/04/30 08:23:35;;;;;;;;;;;;;;;;;;5057121;28;19920;-62
2023/04/30 08:26:01;;;;;;;;;;;;;;;;;;5055069;28;19929;-62
2023/04/30 08:28:27;;;;;;;;;;;;;;;;;;5050435;28;19932;-62
2023/04/30 08:30:53;;;;;;;;;;;;;;;;;;5053804;28;19921;-62
2023/04/30 08:33:19;;;;;;;;;;;;;;;;;;5054474;28;20446;-61
2023/04/30 08:35:45;;;;;;;;;;;;;;;;;;5055199;28;19927;-62
2023/04/30 08:38:11;;;;;;;;;;;;;;;;;;5050603;28;19996;-62
2023/04/30 08:40:37;;;;;;;;;;;;;;;;;;5051051;28;19966;-62
2023/04/30 08:43:03;;;;;;;;;;;;;;;;;;5050048;28;19940;-62
2023/04/30 08:45:29;;;;;;;;;;;;;;;;;;5050966;28;19974;-62
2023/04/30 08:47:57;;;;;;;;;;;;;;;;;;5051167;28;19921;-62
2023/04/30 08:50:22;;;;;;;;;;;;;;;;;;5045376;28;20449;-61
2023/04/30 08:52:48;;;;;;;;;;;;;;;;;;5047433;28;19928;-61
2023/04/30 08:55:14;;;;;;;;;;;;;;;;;;5049687;28;19921;-62
2023/04/30 08:57:40;;;;;;;;;;;;;;;;;;5050766;28;19928;-62
2023/04/30 09:00:06;;;;;;;;;;;;;;;;;;5051313;28;19982;-62
2023/04/30 09:02:32;;;;;;;;;;;;;;;;;;5047911;28;20321;-62
2023/04/30 09:04:58;;;;;;;;;;;;;;;;;;5050595;28;19920;-62
2023/04/30 09:07:26;;;;;;;;;;;;;;;;;;5051356;28;19920;-62
2023/04/30 09:09:52;;;;;;;;;;;;;;;;;;5054397;28;20413;-61
2023/04/30 09:12:18;;;;;;;;;;;;;;;;;;5058338;28;19972;-62
2023/04/30 09:14:44;;;;;;;;;;;;;;;;;;5055503;28;19928;-62
2023/04/30 09:17:10;;;;;;;;;;;;;;;;;;5050781;28;19920;-62
2023/04/30 09:19:36;;;;;;;;;;;;;;;;;;5051807;28;19943;-62
2023/04/30 09:22:02;;;;;;;;;;;;;;;;;;5048721;28;20102;-62
2023/04/30 09:24:28;;;;;;;;;;;;;;;;;;5050459;28;20058;-62
2023/04/30 09:26:53;;;;;;;;;;;;;;;;;;5043875;28;19924;-62
2023/04/30 09:29:19;;;;;;;;;;;;;;;;;;5058537;28;19921;-62
2023/04/30 09:31:45;;;;;;;;;;;;;;;;;;5060664;28;19920;-62
2023/04/30 09:34:11;;;;;;;;;;;;;;;;;;5054244;28;19979;-62
2023/04/30 09:36:37;;;;;;;;;;;;;;;;;;5050833;28;19960;-62
2023/04/30 09:39:03;;;;;;;;;;;;;;;;;;5049859;28;19920;-62
2023/04/30 09:41:29;;;;;;;;;;;;;;;;;;5035418;28;20454;-62
2023/04/30 09:43:55;;;;;;;;;;;;;;;;;;5041309;28;19955;-62
2023/04/30 09:46:21;;;;;;;;;;;;;;;;;;5055554;28;20031;-62
2023/04/30 09:48:48;;;;;;;;;;;;;;;;;;5056638;28;19927;-62
2023/04/30 09:51:14;;;;;;;;;;;;;;;;;;5057035;28;20410;-62
2023/04/30 09:53:40;;;;;;;;;;;;;;;;;;5050829;28;19983;-62
2023/04/30 09:56:05;;;;;;;;;;;;;;;;;;5049199;28;19956;-61
2023/04/30 09:58:31;;;;;;;;;;;;;;;;;;5035437;28;19932;-62
2023/04/30 10:00:57;;;;;;;;;;;;;;;;;;5056035;28;19921;-62
2023/04/30 10:03:23;;;;;;;;;;;;;;;;;;5053231;28;20465;-62
2023/04/30 10:05:49;;;;;;;;;;;;;;;;;;5050440;28;19925;-61
2023/04/30 10:08:15;;;;;;;;;;;;;;;;;;5053658;28;19921;-62
2023/04/30 10:10:41;;;;;;;;;;;;;;;;;;5054327;28;19925;-62
2023/04/30 10:13:07;;;;;;;;;;;;;;;;;;5034960;28;19932;-62
2023/04/30 10:15:33;;;;;;;;;;;;;;;;;;5049056;28;20653;-61
2023/04/30 10:17:59;;;;;;;;;;;;;;;;;;5053655;28;19956;-62
2023/04/30 10:20:25;;;;;;;;;;;;;;;;;;5053934;28;19943;-62
2023/04/30 10:22:51;;;;;;;;;;;;;;;;;;5050983;28;19928;-62
2023/04/30 10:25:17;;;;;;;;;;;;;;;;;;5052517;28;19921;-62
2023/04/30 10:27:43;;;;;;;;;;;;;;;;;;5053289;28;19967;-62
2023/04/30 10:30:09;;;;;;;;;;;;;;;;;;5054094;28;19960;-62
2023/04/30 10:32:35;;;;;;;;;;;;;;;;;;5054397;28;19925;-61
2023/04/30 10:35:01;;;;;;;;;;;;;;;;;;5055505;28;20004;-61
2023/04/30 10:37:27;;;;;;;;;;;;;;;;;;5055783;28;20047;-61
2023/04/30 10:39:52;;;;;;;;;;;;;;;;;;5052942;28;20377;-62
2023/04/30 10:42:18;;;;;;;;;;;;;;;;;;5055620;28;20237;-62
2023/04/30 10:44:44;;;;;;;;;;;;;;;;;;5055727;28;20337;-62
2023/04/30 10:47:10;;;;;;;;;;;;;;;;;;5041972;28;19925;-62
2023/04/30 10:49:36;;;;;;;;;;;;;;;;;;5052762;28;20293;-62
2023/04/30 10:52:02;;;;;;;;;;;;;;;;;;5052564;28;19925;-62
2023/04/30 10:54:28;;;;;;;;;;;;;;;;;;5047145;28;19920;-62
2023/04/30 10:56:57;;;;;;;;;;;;;;;;;;5054360;28;20125;-62
2023/04/30 10:59:23;;;;;;;;;;;;;;;;;;5058311;28;20026;-62
2023/04/30 11:01:49;;;;;;;;;;;;;;;;;;5063262;28;19920;-62
2023/04/30 11:04:15;;;;;;;;;;;;;;;;;;5054239;28;19928;-62
2023/04/30 11:06:41;;;;;;;;;;;;;;;;;;5049628;28;20290;-62
2023/04/30 11:09:07;;;;;;;;;;;;;;;;;;5052363;28;19921;-62
2023/04/30 11:11:32;;;;;;;;;;;;;;;;;;5054469;28;20351;-62
2023/04/30 11:13:58;;;;;;;;;;;;;;;;;;5043641;28;19932;-62
2023/04/30 11:16:24;;;;;;;;;;;;;;;;;;5049044;28;19967;-62
2023/04/30 11:18:50;;;;;;;;;;;;;;;;;;5053089;28;19920;-62
2023/04/30 11:21:16;;;;;;;;;;;;;;;;;;5064172;28;20019;-62
2023/04/30 11:23:42;;;;;;;;;;;;;;;;;;5052991;28;19927;-61
2023/04/30 11:26:08;;;;;;;;;;;;;;;;;;5050785;28;20405;-61
2023/04/30 11:28:34;;;;;;;;;;;;;;;;;;5050854;28;19921;-61
2023/04/30 11:31:00;;;;;;;;;;;;;;;;;;5061331;28;19920;-61
2023/04/30 11:33:26;;;;;;;;;;;;;;;;;;5051706;28;19931;-62
2023/04/30 11:35:52;;;;;;;;;;;;;;;;;;5036913;28;19925;-62
2023/04/30 11:38:18;;;;;;;;;;;;;;;;;;5056956;28;19920;-62
2023/04/30 11:40:45;;;;;;;;;;;;;;;;;;5046988;28;19921;-62
2023/04/30 11:43:10;;;;;;;;;;;;;;;;;;5054008;28;19928;-62
2023/04/30 11:45:36;;;;;;;;;;;;;;;;;;5043879;28;19920;-62
2023/04/30 11:48:02;;;;;;;;;;;;;;;;;;5052601;28;20287;-62
2023/04/30 11:50:28;;;;;;;;;;;;;;;;;;5056507;28;20050;-61
2023/04/30 11:52:54;;;;;;;;;;;;;;;;;;5039030;28;19936;-61
2023/04/30 11:55:20;;;;;;;;;;;;;;;;;;5038453;28;19921;-62
2023/04/30 11:57:46;;;;;;;;;;;;;;;;;;5050513;28;20017;-61
2023/04/30 12:00:12;;;;;;;;;;;;;;;;;;5046717;28;19924;-62
2023/04/30 12:02:38;;;;;;;;;;;;;;;;;;5054649;28;19967;-62
2023/04/30 12:05:04;;;;;;;;;;;;;;;;;;5053468;28;20367;-62
2023/04/30 12:07:30;;;;;;;;;;;;;;;;;;5051447;28;19989;-62
2023/04/30 12:12:30;;;;;;;6.40;2.92;;;16.60;97.30;;;;;;5104267;27;20322;-60
2023/04/30 12:14:56;;;;;;;11.07;3.00;;;16.20;99.50;;;;;;5105749;28;20058;-61
2023/04/30 12:17:37;;;;;;;5.80;3.03;;;16.10;99.90;;;;;;5096585;28;20031;-63
2023/04/30 12:20:03;;;;;;;4.63;2.58;;;16.30;99.30;;;;;;5107709;28;20117;-62
2023/04/30 12:22:48;;;;;;;4.50;3.00;;;16.30;99.30;;;;;;5095329;28;20123;-62
2023/04/30 12:25:18;;;;;;;3.65;2.40;;;16.20;98.50;;;;;;5093054;28;20123;-62
2023/04/30 12:27:52;;;;;;;4.03;2.22;;;16.10;99.20;;;;;;5101442;28;20031;-62
2023/04/30 12:30:24;;;;;;;13.93;3.00;;;16.20;99.10;;;;;;5101126;28;20051;-62
2023/04/30 12:33:29;;;;;;;8.23;2.53;;;16.20;99.60;;;;;;5109442;28;20036;-62
2023/04/30 12:35:57;;;;;;;3.58;2.58;;;16.20;98.00;;;;;;5095228;28;20117;-62
2023/04/30 12:38:23;;;;;;;4.57;2.50;;;16.20;98.90;;;;;;5098759;28;20039;-62
2023/04/30 12:40:49;;;;;;;14.63;3.40;;;16.30;98.90;;;;;;5096836;28;20426;-62
2023/04/30 12:43:16;;;;;;;3.60;2.10;;;16.30;98.70;;;;;;5099219;28;20046;-61
2023/04/30 12:45:52;;;;;;;4.82;2.33;;;16.40;99.10;;;;;;5093098;28;20036;-62
2023/04/30 12:48:20;;;;;;;9.70;2.70;;;16.50;97.70;;;;;;5100317;28;20036;-62
2023/04/30 12:51:00;;;;;;;5.05;2.58;;;16.40;97.80;;;;;;5107910;28;20508;-62
2023/04/30 12:53:27;;;;;;;8.63;2.40;;;16.40;97.50;;;;;;5105329;28;20043;-62
2023/04/30 12:56:08;;;;;;;6.43;2.38;;;16.30;98.60;;;;;;5091965;28;20036;-62
2023/04/30 12:58:33;;;;;;;6.23;2.20;;;16.40;97.70;;;;;;5100656;28;20405;-62
2023/04/30 13:00:59;;;;;;;5.03;2.60;;;16.40;97.80;;;;;;5097955;28;20301;-61
2023/04/30 13:03:36;;;;;;;4.53;2.28;;;16.40;97.00;;;;;;5101736;28;20397;-61
2023/04/30 13:06:03;;;;;;;4.55;2.03;;;16.60;95.10;;;;;;5089538;28;20036;-61
2023/04/30 13:08:29;;;;;;;7.80;2.42;;;16.60;96.60;;;;;;5105044;28;20063;-61
2023/04/30 13:10:54;;;;;;;3.65;1.85;;;16.60;97.30;;;;;;5103100;28;20294;-61
2023/04/30 13:13:20;;;;;;;4.55;1.88;;;16.60;98.10;;;;;;5103822;28;20036;-62
2023/04/30 13:15:46;;;;;;;3.42;2.35;;;16.70;97.20;;;;;;5098492;28;20040;-62
2023/04/30 13:18:14;;;;;;;3.83;2.00;;;16.80;96.90;;;;;;5098721;28;20035;-62
2023/04/30 13:20:40;;;;;;;4.78;2.42;;;16.80;95.40;;;;;;5104790;28;20719;-62
2023/04/30 13:23:05;;;;;;;5.72;2.72;;;16.90;95.20;;;;;;5085469;28;20044;-62
2023/04/30 13:25:32;;;;;;;7.95;3.75;;;17.00;96.00;;;;;;5083035;28;20040;-62
2023/04/30 13:27:58;;;;;;;9.52;2.85;;;17.00;94.80;;;;;;5105205;22;20044;-66
2023/04/30 13:30:24;;;;;;;5.07;2.90;;;16.90;94.60;;;;;;5077919;28;20033;-66
2023/04/30 13:32:50;;;;;;;5.60;2.60;;;17.00;95.50;;;;;;5098744;28;20040;-66
2023/04/30 13:35:16;;;;;;;5.20;2.60;;;17.10;95.60;;;;;;5089522;28;20032;-66
2023/04/30 13:37:42;;;;;;;7.65;2.50;;;17.30;95.40;;;;;;5092086;28;20464;-65
2023/04/30 13:40:08;;;;;;;4.93;2.40;;;17.30;94.30;;;;;;5088485;28;20063;-65
2023/04/30 13:42:37;;;;;;;6.63;2.80;;;17.30;92.90;;;;;;5088040;28;20036;-66
2023/04/30 13:45:03;;;;;;;8.88;2.83;;;17.20;92.50;;;;;;5087633;28;20063;-65
2023/04/30 13:47:29;;;;;;;5.97;2.70;;;17.20;93.20;;;;;;5092536;28;20032;-65
2023/04/30 13:49:55;;;;;;;3.72;2.05;;;17.00;94.20;;;;;;5084556;28;20398;-66
2023/04/30 13:52:20;;;;;;;4.75;2.22;;;17.00;94.70;;;;;;5067533;28;20045;-65
2023/04/30 13:54:46;;;;;;;7.80;2.47;;;16.90;95.10;;;;;;5084418;28;20048;-66
2023/04/30 13:57:12;;;;;;;6.15;2.00;;;16.80;94.00;;;;;;5090070;28;20466;-66
2023/04/30 13:59:37;;;;;;;6.47;2.58;;;16.80;93.80;;;;;;5091083;28;20043;-65
2023/04/30 14:02:03;;;;;;;4.30;2.20;;;16.80;94.10;;;;;;5081177;28;20087;-66
2023/04/30 14:04:30;;;;;;;4.82;2.00;;;16.80;93.10;;;;;;5091437;28;20032;-66
2023/04/30 14:06:56;;;;;;;5.28;2.10;;;16.80;94.20;;;;;;5090985;28;20585;-66
2023/04/30 14:09:22;;;;;;;6.15;2.58;;;16.80;95.50;;;;;;5083474;28;20166;-66
2023/04/30 14:11:47;;;;;;;4.22;1.98;;;16.80;94.70;;;;;;5082312;28;20040;-66
2023/04/30 14:14:13;;;;;;;5.43;2.20;;;16.80;94.70;;;;;;5088431;28;20036;-66
2023/04/30 14:16:39;;;;;;;4.05;2.20;;;16.70;93.90;;;;;;5090493;28;20048;-65
2023/04/30 14:19:05;;;;;;;2.95;2.13;;;16.80;93.30;;;;;;5086635;28;20042;-66
2023/04/30 14:21:32;;;;;;;4.85;2.22;;;16.70;91.80;;;;;;5085528;28;20044;-66
2023/04/30 14:23:57;;;;;;;6.47;2.45;;;16.70;91.90;;;;;;5085099;28;20039;-66
2023/04/30 14:26:23;;;;;;;2.95;2.30;;;16.60;92.50;;;;;;5085566;28;20038;-66
2023/04/30 14:28:49;;;;;;;5.72;2.10;;;16.70;93.40;;;;;;5085907;28;20442;-65
2023/04/30 14:31:14;;;;;;;4.10;2.13;;;16.60;91.60;;;;;;5077380;28;20036;-66
2023/04/30 14:33:40;;;;;;;6.38;2.47;;;16.80;92.50;;;;;;5088650;28;20028;-66
2023/04/30 14:36:06;;;;;;;4.63;2.55;;;16.90;91.80;;;;;;5086556;28;20111;-66
2023/04/30 14:38:32;;;;;;;4.55;2.05;;;16.90;91.40;;;;;;5084760;28;20031;-66
2023/04/30 14:40:57;;;;;;;6.03;2.53;;;17.00;91.30;;;;;;5091702;28;20044;-66
2023/04/30 14:43:23;;;;;;;4.63;1.98;;;16.90;91.30;;;;;;5082580;28;20095;-66
2023/04/30 14:45:52;;;;;;;6.97;2.47;;;16.90;91.30;;;;;;5061630;28;20040;-66
2023/04/30 14:48:17;;;;;;;5.20;2.00;;;16.90;90.80;;;;;;5072661;28;20044;-67
2023/04/30 14:50:44;;;;;;;3.85;1.60;;;16.90;90.30;;;;;;5083061;28;20059;-66
2023/04/30 14:53:10;;;;;;;5.15;2.42;;;17.00;90.90;;;;;;5072001;28;20104;-67
2023/04/30 14:55:36;;;;;;;4.05;1.90;;;17.00;91.10;;;;;;5085763;28;20031;-67
2023/04/30 14:58:03;;;;;;;3.45;2.05;;;17.00;91.00;;;;;;5081047;28;20036;-67
2023/04/30 15:00:29;;;;;;;3.92;1.70;;;17.00;90.10;;;;;;5086069;28;20043;-67
2023/04/30 15:02:55;;;;;;;5.00;1.90;;;17.10;89.90;;;;;;5089712;28;20036;-67
2023/04/30 15:05:20;;;;;;;4.50;1.83;;;17.10;88.40;;;;;;5086007;28;20098;-67
2023/04/30 15:07:46;;;;;;;4.07;2.00;;;17.10;87.50;;;;;;5081824;28;20052;-67
2023/04/30 15:10:11;;;;;;;3.85;1.60;;;17.00;89.50;;;;;;5084747;28;20383;-67
2023/04/30 15:12:38;;;;;;;5.20;1.50;;;17.00;88.30;;;;;;5079056;28;20416;-67
2023/04/30 15:15:04;;;;;;;4.45;1.73;;;17.10;89.70;;;;;;5079913;28;20086;-67
2023/04/30 15:17:33;;;;;;;2.55;1.50;;;17.00;87.10;;;;;;5086377;28;20590;-67
2023/04/30 15:20:01;;;;;;;5.03;1.80;;;17.00;87.40;;;;;;5086330;28;20196;-67
2023/04/30 15:22:26;;;;;;;5.07;1.70;;;17.00;85.70;;;;;;5084126;28;20054;-67
2023/04/30 15:24:52;;;;;;;2.75;1.48;;;17.00;87.50;;;;;;5085893;28;20553;-67
2023/04/30 15:27:18;;;;;;;3.92;1.40;;;17.00;88.40;;;;;;5083532;28;20032;-67
2023/04/30 15:29:45;;;;;;;3.55;1.35;;;17.00;85.20;;;;;;5091882;28;20038;-67
2023/04/30 15:32:11;;;;;;;3.33;1.77;;;17.00;85.80;;;;;;5085786;28;20078;-66
2023/04/30 15:34:36;;;;;;;2.25;1.30;;;16.90;85.70;;;;;;5078448;28;20027;-66
2023/04/30 15:37:02;;;;;;;2.97;1.40;;;16.80;85.90;;;;;;5090639;28;20043;-66